หน้าหลัก
METAR-TAF:

METAR-TAF

ท่าอากาศยาน :

Chesterfield Inlet, นูนาวุต, แคนาดา

ละติจูด: 63-20N, ลองจิจูด: 090-43W, ความสูง: 11 ม.

การสังเกตสภาพอากาศปัจจุบัน

รายงานได้ทำขึ้นเมื่อ 8 ชั่วโมงและ 51 นาทีที่แล้ว ณ เวลา 22:00 UTC
ลม 3 นอตจากเหนือ, แปรผันระหว่างเหนือ/ตะวันตกเฉียงเหนือ และเหนือ/ตะวันออกเฉียงเหนือ
อุณหภูมิ -8°C
ความชื้น 85%
ความกดอากาศ 1019 hPa
ทัศนวิสัย: 24.1 กม.
มีเมฆมาก มืดครึ้มที่ความสูง 1000 ฟุต

METAR: CYCS 192200Z 35003KT 330V030 15SM OVC010 M08/M10 A3010 RMK ST8 LAST STFD OBS/NEXT 201400 SLP196

เวลา: 01:51 (06:51 UTC)


TAF: หายไป

สังเกตการณ์สภาพอากาศและพยากรณ์อากาศของสนามบินมากกว่า 4000 แห่ง (รายงาน METAR และ TAF).

สถานีที่ดูได้จะแสดงไว้ด้วยจุดสีเหลืองและสีแดงบนแผนที่.

เลื่อนเมาส์ไปเหนือจุดเพื่อดูชื่อสถานี.

แล้วคลิกเพื่อดูสังเกตการณ์และการพยากรณ์สภาพอากาศ.

ในการเปลี่ยนแผนที่: คลิกที่ปุ่มสีเขียวที่มีกากบาทสีดำเพื่อซูมเข้า; ที่ปุ่มสีเขียวที่มีขีดเพื่อซูมออก; หรือที่ลูกศรสีเขียวเพื่อไปยังแผนที่ที่อยู่ติดกัน.


METAR-TAF: